• Join FlightAware (Why Join?)
  • Login
  • US Flag 
05:51PM EDT


 

Airport Tracker/Info


-or-


 

Live Flight TrackerFlight Track Log ✈ N749PG ✈ 18-Oct-2013 ✈ KMEM - KNEW

Flight Track Log - Related Links

Times and Time Zones

All times are in EDT time to prevent confusion due to time zone crossing. See the N749PG flight status page for this flight to view local times or setup timezone preferences in your user account.

Time Position Orientation Groundspeed Altitude Reporting Facility
EDT Latitude Longitude Course Direction KTS MPH feet Rate Location/Type
12:22PM 35.0667 -89.9833 270° West 110 127 900  Level KMEM
12:22PM 35.0667 -90.0000 270° West 110 127 1,300 1,200 Climbing KMEM
12:23PM 35.0500 -90.0333 239° Southwest 115 132 2,600 780 Climbing KMEM
12:24PM 35.0500 -90.0833 270° West 150 173 3,000 180 Climbing KMEM
12:25PM 35.0500 -90.1333 270° West 177 204 3,000  Level KMEM
12:26PM 35.0500 -90.1833 270° West 175 201 3,000  Level KMEM
12:27PM 35.0167 -90.2333 231° Southwest 168 193 3,000  Level KMEM
12:28PM 34.9667 -90.2167 165° South 166 191 3,000  Level KMEM
12:29PM 34.9333 -90.2167 180° South 167 192 3,100 840 Climbing KMEM
12:30PM 34.8833 -90.2167 180° South 124 143 4,600 1,200 Climbing KMEM
12:31PM 34.8500 -90.2167 180° South 123 142 5,500 900 Climbing KMEM
12:32PM 34.8167 -90.2167 180° South 138 159 6,600 840 Climbing KMEM
12:33PM 34.7833 -90.2167 180° South 140 161 7,200 660 Climbing KMEM
12:34PM 34.7333 -90.2167 180° South 144 166 8,000 360 Climbing KMEM
12:35PM 34.7089 -90.2181 183° South 151 174 7,900 -120 Descending Memphis Center
12:36PM 34.6589 -90.2158 178° South 167 192 7,900  Level Memphis Center
12:37PM 34.6089 -90.2133 178° South 172 198 7,900  Level Memphis Center
12:38PM 34.5586 -90.2108 178° South 177 204 7,900  Level Memphis Center
12:39PM 34.5086 -90.2108 180° South 177 204 8,000  Climbing Memphis Center
12:40PM 34.4564 -90.2061 176° South 177 204 7,900 -60 Descending Memphis Center
12:41PM 34.4022 -90.2036 178° South 177 204 7,900  Level Memphis Center
12:42PM 34.3519 -90.2011 178° South 177 204 8,000  Climbing Memphis Center
12:43PM 34.3000 -90.1989 178° South 182 209 8,000  Level Memphis Center
12:44PM 34.2478 -90.1989 180° South 182 209 8,000  Level Memphis Center
12:45PM 34.1975 -90.1939 175° South 182 209 8,000  Level Memphis Center
12:46PM 34.1456 -90.1939 180° South 182 209 8,000  Level Memphis Center
12:47PM 34.0933 -90.1917 178° South 182 209 8,000  Level Memphis Center
12:48PM 34.0411 -90.1892 178° South 182 209 8,000  Level Memphis Center
12:49PM 33.9889 -90.1867 178° South 182 209 8,000  Level Memphis Center
12:50PM 33.9367 -90.1869 180° South 182 209 8,000  Level Memphis Center
12:51PM 33.8908 -90.1819 175° South 182 209 8,000  Level Memphis Center
12:52PM 33.8386 -90.1797 178° South 188 216 8,000  Level Memphis Center
12:53PM 33.7864 -90.1797 180° South 188 216 8,000  Level Memphis Center
12:54PM 33.7342 -90.1772 178° South 193 222 8,000  Level Memphis Center
12:55PM 33.6822 -90.1725 176° South 193 222 8,000  Level Memphis Center
12:56PM 33.6258 -90.1700 178° South 193 222 8,000  Level Memphis Center
12:57PM 33.5736 -90.1703 180° South 193 222 8,000  Level Memphis Center
12:58PM 33.5233 -90.1678 178° South 193 222 8,000  Level Memphis Center
12:59PM 33.4714 -90.1681 180° South 193 222 8,000 -60 Level Memphis Center
01:00PM 33.4211 -90.1706 182° South 193 222 7,900 -60 Descending Memphis Center
01:01PM 33.3669 -90.1731 182° South 193 222 7,900  Level Memphis Center
01:02PM 33.3169 -90.1758 183° South 198 228 7,900  Level Memphis Center
01:03PM 33.2689 -90.1783 182° South 193 222 7,900  Level Memphis Center
01:04PM 33.2167 -90.1783 180° South 188 216 7,900  Level Memphis Center
01:05PM 33.1667 -90.1811 183° South 188 216 7,900  Level Memphis Center
01:06PM 33.1144 -90.1836 182° South 188 216 7,900  Level Memphis Center
01:07PM 33.0622 -90.1836 180° South 183 211 7,900  Level Memphis Center
01:08PM 33.0119 -90.1889 185° South 183 211 7,900  Level Memphis Center
01:09PM 32.9661 -90.1889 180° South 183 211 7,900  Level Memphis Center
01:10PM 32.9161 -90.1914 182° South 183 211 7,900  Level Memphis Center
01:11PM 32.8658 -90.1939 182° South 183 211 7,900  Level Memphis Center
01:12PM 32.8158 -90.1967 183° South 183 211 8,000  Climbing Memphis Center
01:13PM 32.7658 -90.1992 182° South 183 211 8,000  Level Memphis Center
01:14PM 32.7156 -90.1992 180° South 183 211 8,000  Level Memphis Center
01:15PM 32.6656 -90.2019 183° South 183 211 8,000  Level Memphis Center
01:16PM 32.6133 -90.2044 182° South 177 204 8,000  Level Memphis Center
01:17PM 32.5653 -90.2044 180° South 177 204 8,000  Level Memphis Center
01:18PM 32.5172 -90.2069 183° South 177 204 8,000  Level Memphis Center
01:19PM 32.4672 -90.2097 183° South 177 204 8,000  Level Memphis Center
01:20PM 32.4172 -90.2122 182° South 177 204 8,000  Level Memphis Center
01:21PM 32.3650 -90.2122 180° South 177 204 8,000  Level Memphis Center
01:22PM 32.3169 -90.2147 183° South 177 204 8,000  Level Memphis Center
01:23PM 32.2669 -90.2172 182° South 177 204 8,000  Level Memphis Center
01:25PM 32.1889 -90.2207 182° South  Level FlightAware Approximate
01:26PM 32.1128 -90.2250 182° South 181 208 8,000  Level Houston Center
01:27PM 32.0789 -90.2275 184° South 177 204 8,000  Level Memphis Center
01:28PM 32.0308 -90.2275 180° South 171 197 8,000  Level Memphis Center
01:29PM 31.9808 -90.2300 182° South 171 197 8,000 -60 Level Memphis Center
01:30PM 31.9286 -90.2325 182° South 183 211 7,900  Descending Memphis Center
01:31PM 31.8806 -90.2350 183° South 183 211 8,000  Climbing Memphis Center
01:31PM 31.8511 -90.2356 181° South 183 211 7,900  Descending Houston Center
01:32PM 31.8000 -90.2383 183° South 185 213 8,000  Climbing Houston Center
01:33PM 31.7494 -90.2397 181° South 184 212 8,000  Level Houston Center
01:34PM 31.6992 -90.2417 182° South 182 209 8,000  Level Houston Center
01:35PM 31.6483 -90.2442 182° South 182 209 8,000 -60 Level Houston Center
01:36PM 31.5972 -90.2467 182° South 184 212 7,900  Descending Houston Center
01:37PM 31.5361 -90.2486 182° South 183 211 8,000  Climbing Houston Center
01:38PM 31.4844 -90.2503 182° South 185 213 8,000  Level Houston Center
01:39PM 31.4339 -90.2536 183° South 184 212 8,000  Level Houston Center
01:40PM 31.3828 -90.2553 182° South 183 211 8,000  Level Houston Center
01:41PM 31.3328 -90.2564 181° South 181 208 8,000  Level Houston Center
01:43PM 31.2714 -90.2525 177° South 187 215 8,000  Level Houston Center
01:44PM 31.2208 -90.2428 171° South 185 213 8,000  Level Houston Center
01:45PM 31.1717 -90.2436 181° South 189 217 8,000  Level Houston Center
01:46PM 31.1214 -90.2417 178° South 183 211 8,000  Level Houston Center
01:47PM 31.0725 -90.2386 177° South 178 205 8,000  Level Houston Center
01:48PM 31.0228 -90.2353 177° South 178 205 8,000  Level Houston Center
01:49PM 30.9628 -90.2322 177° South 179 206 8,000  Level Houston Center
01:50PM 30.9139 -90.2289 177° South 178 205 8,000  Level Houston Center
01:51PM 30.8647 -90.2258 177° South 177 204 8,000  Level Houston Center
01:51PM 30.8528 -90.2256 179° South 179 206 8,000  Level Houston Center
01:52PM 30.8142 -90.2222 176° South 181 208 8,000  Level Houston Center
01:52PM 30.8131 -90.2225 192° South 180 207 8,000  Level Houston Center
01:53PM 30.7669 -90.2194 177° South 179 206 8,000  Level Houston Center
01:53PM 30.7647 -90.2183 157° South 179 206 8,000 -540 Level Houston Center
01:54PM 30.7025 -90.2128 176° South 183 211 7,400 -660 Descending Houston Center
01:55PM 30.6494 -90.2050 173° South 216 249 6,800 -720 Descending Houston Center
01:55PM 30.6453 -90.2033 161° South 204 235 6,700 -720 Descending Houston Center
01:56PM 30.5872 -90.1856 165° South 217 250 6,000 -780 Descending Houston Center
01:56PM 30.5778 -90.1836 170° South 215 247 5,900 -720 Descending Houston Center
01:57PM 30.5322 -90.1700 166° South 209 241 5,300 -720 Descending Houston Center
01:57PM 30.5231 -90.1667 163° South 203 234 5,200 -900 Descending Houston Center
01:58PM 30.4722 -90.1519 166° South 203 234 4,500 -600 Descending Houston Center
01:58PM 30.4778 -90.1528 353° North 204 235 4,600 -660 Climbing Houston Center
01:59PM 30.4303 -90.1417 169° South 202 232 4,000 -900 Descending Houston Center
01:59PM 30.4136 -90.1344 160° South 201 231 3,700 -840 Descending Houston Center
02:00PM 30.3692 -90.1225 167° South 194 223 3,100 -720 Descending Houston Center
02:00PM 30.3614 -90.1206 168° South 197 227 3,000 -120 Descending Houston Center
02:01PM 30.3228 -90.1122 169° South 183 211 3,000  Level Houston Center
02:01PM 30.3122 -90.1081 161° South 190 219 3,000  Level Houston Center
02:02PM 30.2725 -90.1072 179° South 153 176 3,000  Level Houston Center
02:02PM 30.2694 -90.1061 163° South 169 194 3,000  Level Houston Center
02:03PM 30.2219 -90.0997 173° South 157 181 3,000  Level Houston Center
02:03PM 30.2264 -90.1003 354° North 160 184 3,000  Level Houston Center
02:04PM 30.1800 -90.0942 174° South 159 183 3,000  Level Houston Center
02:04PM 30.1822 -90.0947 348° North 159 183 3,000  Level Houston Center
02:05PM 30.1361 -90.0889 174° South 158 182 3,000  Level Houston Center
02:05PM 30.1297 -90.0881 174° South 159 183 3,000  Level Houston Center
02:06PM 30.0942 -90.0833 173° South 158 182 3,000  Level Houston Center
02:06PM 30.0858 -90.0819 172° South 159 183 3,000 -900 Level Houston Center
02:07PM 30.0481 -90.0781 175° South 159 183 2,100 -1,080 Descending Houston Center
02:07PM 30.0411 -90.0756 163° South 160 184 1,900 -1,320 Descending Houston Center
02:08PM 30.0100 -90.0653 164° South 145 167 800 -1,200 Descending Houston Center
02:08PM 30.0072 -90.0575 112° Southeast 158 182 700 -120 Descending Houston Center
02:09PM 30.0089 -90.0342 85° East 106 122 700 -300 Level Houston Center
02:09PM 30.0192 -90.0303 18° North 116 133 400 -720 Descending Houston Center
02:11PM 30.0424 -90.0283 40° Northeast  Level Estimated